sensor_id;sensor_type;location;lat;lon;timestamp;temperature;humidity
6740;DHT22;3407;49.882;10.920;2023-08-06T00:01:15;16.50;1.00
6740;DHT22;3407;49.882;10.920;2023-08-06T00:06:10;16.40;1.00
6740;DHT22;3407;49.882;10.920;2023-08-06T00:11:06;16.30;1.00
6740;DHT22;3407;49.882;10.920;2023-08-06T00:16:09;16.20;1.00
6740;DHT22;3407;49.882;10.920;2023-08-06T00:21:05;16.20;1.00
6740;DHT22;3407;49.882;10.920;2023-08-06T00:26:00;16.20;1.00
6740;DHT22;3407;49.882;10.920;2023-08-06T00:30:57;16.20;1.00
6740;DHT22;3407;49.882;10.920;2023-08-06T00:35:52;16.10;1.00
6740;DHT22;3407;49.882;10.920;2023-08-06T00:40:48;16.10;1.00
6740;DHT22;3407;49.882;10.920;2023-08-06T00:45:44;16.00;1.00
6740;DHT22;3407;49.882;10.920;2023-08-06T00:50:39;15.80;1.00
6740;DHT22;3407;49.882;10.920;2023-08-06T00:55:35;15.60;1.00
6740;DHT22;3407;49.882;10.920;2023-08-06T01:00:31;15.40;10.70
6740;DHT22;3407;49.882;10.920;2023-08-06T01:05:26;15.40;23.80
6740;DHT22;3407;49.882;10.920;2023-08-06T01:10:59;15.30;29.60
6740;DHT22;3407;49.882;10.920;2023-08-06T01:15:58;15.20;32.70
6740;DHT22;3407;49.882;10.920;2023-08-06T01:20:54;15.10;40.80
6740;DHT22;3407;49.882;10.920;2023-08-06T01:31:33;15.20;53.90
6740;DHT22;3407;49.882;10.920;2023-08-06T01:36:30;15.10;54.90
6740;DHT22;3407;49.882;10.920;2023-08-06T01:41:26;15.00;50.10
6740;DHT22;3407;49.882;10.920;2023-08-06T01:46:22;14.90;53.00
6740;DHT22;3407;49.882;10.920;2023-08-06T01:51:17;14.80;60.20
6740;DHT22;3407;49.882;10.920;2023-08-06T01:56:13;14.90;66.80
6740;DHT22;3407;49.882;10.920;2023-08-06T02:01:08;14.90;63.40
6740;DHT22;3407;49.882;10.920;2023-08-06T02:06:04;14.80;66.70
6740;DHT22;3407;49.882;10.920;2023-08-06T02:10:59;14.70;64.60
6740;DHT22;3407;49.882;10.920;2023-08-06T02:15:55;14.70;68.20
6740;DHT22;3407;49.882;10.920;2023-08-06T02:20:59;14.70;71.10
6740;DHT22;3407;49.882;10.920;2023-08-06T02:30:54;14.70;73.40
6740;DHT22;3407;49.882;10.920;2023-08-06T02:35:50;14.60;72.70
6740;DHT22;3407;49.882;10.920;2023-08-06T02:40:46;14.60;73.30
6740;DHT22;3407;49.882;10.920;2023-08-06T02:45:41;14.50;73.60
6740;DHT22;3407;49.882;10.920;2023-08-06T02:50:41;14.40;75.50
6740;DHT22;3407;49.882;10.920;2023-08-06T02:55:36;14.40;77.90
6740;DHT22;3407;49.882;10.920;2023-08-06T03:00:32;14.50;80.80
6740;DHT22;3407;49.882;10.920;2023-08-06T03:05:27;14.50;82.10
6740;DHT22;3407;49.882;10.920;2023-08-06T03:10:23;14.50;82.80
6740;DHT22;3407;49.882;10.920;2023-08-06T03:15:18;14.50;82.50
6740;DHT22;3407;49.882;10.920;2023-08-06T03:20:14;14.50;85.70
6740;DHT22;3407;49.882;10.920;2023-08-06T03:25:09;14.50;83.00
6740;DHT22;3407;49.882;10.920;2023-08-06T03:30:05;14.40;80.20
6740;DHT22;3407;49.882;10.920;2023-08-06T03:35:01;14.30;79.10
6740;DHT22;3407;49.882;10.920;2023-08-06T03:39:57;14.20;82.00
6740;DHT22;3407;49.882;10.920;2023-08-06T03:44:52;14.30;85.50
6740;DHT22;3407;49.882;10.920;2023-08-06T03:49:48;14.40;86.60
6740;DHT22;3407;49.882;10.920;2023-08-06T03:54:45;14.50;86.30
6740;DHT22;3407;49.882;10.920;2023-08-06T03:59:40;14.40;85.90
6740;DHT22;3407;49.882;10.920;2023-08-06T04:04:36;14.40;85.40
6740;DHT22;3407;49.882;10.920;2023-08-06T04:09:31;14.40;86.50
6740;DHT22;3407;49.882;10.920;2023-08-06T04:14:27;14.20;83.50
6740;DHT22;3407;49.882;10.920;2023-08-06T04:19:23;14.10;82.90
6740;DHT22;3407;49.882;10.920;2023-08-06T04:24:19;14.10;85.30
6740;DHT22;3407;49.882;10.920;2023-08-06T04:29:14;14.10;82.20
6740;DHT22;3407;49.882;10.920;2023-08-06T04:34:10;14.00;82.70
6740;DHT22;3407;49.882;10.920;2023-08-06T04:39:05;14.00;84.30
6740;DHT22;3407;49.882;10.920;2023-08-06T04:44:01;13.90;82.60
6740;DHT22;3407;49.882;10.920;2023-08-06T04:48:56;14.00;85.30
6740;DHT22;3407;49.882;10.920;2023-08-06T04:53:52;14.10;86.40
6740;DHT22;3407;49.882;10.920;2023-08-06T04:58:47;14.20;85.50
6740;DHT22;3407;49.882;10.920;2023-08-06T05:03:43;14.20;83.70
6740;DHT22;3407;49.882;10.920;2023-08-06T05:08:38;14.30;85.60
6740;DHT22;3407;49.882;10.920;2023-08-06T05:13:34;14.50;87.80
6740;DHT22;3407;49.882;10.920;2023-08-06T05:18:29;14.70;85.00
6740;DHT22;3407;49.882;10.920;2023-08-06T05:23:25;14.60;78.60
6740;DHT22;3407;49.882;10.920;2023-08-06T05:28:21;14.70;79.20
6740;DHT22;3407;49.882;10.920;2023-08-06T05:33:16;14.80;80.10
6740;DHT22;3407;49.882;10.920;2023-08-06T05:38:12;15.30;81.50
6740;DHT22;3407;49.882;10.920;2023-08-06T05:43:07;15.30;63.80
6740;DHT22;3407;49.882;10.920;2023-08-06T05:48:03;15.20;56.20
6740;DHT22;3407;49.882;10.920;2023-08-06T05:52:59;15.30;55.70
6740;DHT22;3407;49.882;10.920;2023-08-06T05:57:54;15.40;48.30
6740;DHT22;3407;49.882;10.920;2023-08-06T06:02:50;15.60;51.30
6740;DHT22;3407;49.882;10.920;2023-08-06T06:07:45;15.80;30.40
6740;DHT22;3407;49.882;10.920;2023-08-06T06:12:41;16.00;23.20
6740;DHT22;3407;49.882;10.920;2023-08-06T06:17:36;16.10;5.40
6740;DHT22;3407;49.882;10.920;2023-08-06T06:22:32;16.30;19.60
6740;DHT22;3407;49.882;10.920;2023-08-06T06:27:28;19.00;1.00
6740;DHT22;3407;49.882;10.920;2023-08-06T06:32:23;21.00;99.90
6740;DHT22;3407;49.882;10.920;2023-08-06T06:37:19;20.20;1.00
6740;DHT22;3407;49.882;10.920;2023-08-06T06:42:14;21.00;99.90
6740;DHT22;3407;49.882;10.920;2023-08-06T06:47:10;21.40;18.80
6740;DHT22;3407;49.882;10.920;2023-08-06T06:52:06;20.50;99.90
6740;DHT22;3407;49.882;10.920;2023-08-06T06:57:02;20.50;99.90
6740;DHT22;3407;49.882;10.920;2023-08-06T07:01:57;20.10;1.00
6740;DHT22;3407;49.882;10.920;2023-08-06T07:06:53;19.10;99.90
6740;DHT22;3407;49.882;10.920;2023-08-06T07:11:49;18.60;99.90
6740;DHT22;3407;49.882;10.920;2023-08-06T07:16:45;18.30;99.90
6740;DHT22;3407;49.882;10.920;2023-08-06T07:21:40;18.10;1.00
6740;DHT22;3407;49.882;10.920;2023-08-06T07:26:36;17.90;1.00
6740;DHT22;3407;49.882;10.920;2023-08-06T07:31:31;18.00;99.90
6740;DHT22;3407;49.882;10.920;2023-08-06T07:36:26;18.10;1.00
6740;DHT22;3407;49.882;10.920;2023-08-06T07:41:23;18.10;1.00
6740;DHT22;3407;49.882;10.920;2023-08-06T07:46:18;18.20;99.90
6740;DHT22;3407;49.882;10.920;2023-08-06T07:51:14;18.50;99.90
6740;DHT22;3407;49.882;10.920;2023-08-06T07:56:10;18.60;1.00
6740;DHT22;3407;49.882;10.920;2023-08-06T08:01:06;19.00;1.00
6740;DHT22;3407;49.882;10.920;2023-08-06T08:06:02;19.50;99.90
6740;DHT22;3407;49.882;10.920;2023-08-06T08:10:58;20.20;1.00
6740;DHT22;3407;49.882;10.920;2023-08-06T08:15:59;20.40;99.90
6740;DHT22;3407;49.882;10.920;2023-08-06T08:20:54;19.60;1.00
6740;DHT22;3407;49.882;10.920;2023-08-06T08:25:50;18.30;1.00
6740;DHT22;3407;49.882;10.920;2023-08-06T08:30:45;17.50;1.00
6740;DHT22;3407;49.882;10.920;2023-08-06T08:35:41;16.80;1.00
6740;DHT22;3407;49.882;10.920;2023-08-06T08:40:42;16.40;1.00
6740;DHT22;3407;49.882;10.920;2023-08-06T08:45:42;17.00;9.80
6740;DHT22;3407;49.882;10.920;2023-08-06T08:50:39;18.00;1.00
6740;DHT22;3407;49.882;10.920;2023-08-06T08:55:35;18.00;1.00
6740;DHT22;3407;49.882;10.920;2023-08-06T09:00:31;18.10;99.90
6740;DHT22;3407;49.882;10.920;2023-08-06T09:05:28;18.30;1.00
6740;DHT22;3407;49.882;10.920;2023-08-06T09:10:26;17.80;95.80
6740;DHT22;3407;49.882;10.920;2023-08-06T09:15:24;17.40;1.00
6740;DHT22;3407;49.882;10.920;2023-08-06T09:20:20;18.20;1.00
6740;DHT22;3407;49.882;10.920;2023-08-06T09:25:22;22.30;25.60
6740;DHT22;3407;49.882;10.920;2023-08-06T09:30:33;24.60;1.00
6740;DHT22;3407;49.882;10.920;2023-08-06T09:35:30;23.60;99.90
6740;DHT22;3407;49.882;10.920;2023-08-06T09:40:29;20.80;1.00
6740;DHT22;3407;49.882;10.920;2023-08-06T09:45:30;19.60;45.00
6740;DHT22;3407;49.882;10.920;2023-08-06T09:50:31;20.30;1.00
6740;DHT22;3407;49.882;10.920;2023-08-06T09:55:27;19.60;1.00
6740;DHT22;3407;49.882;10.920;2023-08-06T10:00:23;20.10;95.00
6740;DHT22;3407;49.882;10.920;2023-08-06T10:05:19;21.00;1.00
6740;DHT22;3407;49.882;10.920;2023-08-06T10:10:14;21.60;1.00
6740;DHT22;3407;49.882;10.920;2023-08-06T10:15:14;20.90;99.90
6740;DHT22;3407;49.882;10.920;2023-08-06T10:20:10;19.80;1.00
6740;DHT22;3407;49.882;10.920;2023-08-06T10:25:06;19.10;99.90
6740;DHT22;3407;49.882;10.920;2023-08-06T10:30:31;19.50;1.00
6740;DHT22;3407;49.882;10.920;2023-08-06T10:40:33;19.60;1.00
6740;DHT22;3407;49.882;10.920;2023-08-06T10:45:29;18.90;29.20
6740;DHT22;3407;49.882;10.920;2023-08-06T10:50:26;19.20;1.00
6740;DHT22;3407;49.882;10.920;2023-08-06T10:55:23;20.20;1.00
6740;DHT22;3407;49.882;10.920;2023-08-06T11:00:21;19.90;1.00
6740;DHT22;3407;49.882;10.920;2023-08-06T11:05:17;20.10;1.00
6740;DHT22;3407;49.882;10.920;2023-08-06T11:10:13;20.70;99.90
6740;DHT22;3407;49.882;10.920;2023-08-06T11:15:09;23.20;99.90
6740;DHT22;3407;49.882;10.920;2023-08-06T11:20:05;25.00;99.90
6740;DHT22;3407;49.882;10.920;2023-08-06T11:25:01;26.30;99.90
6740;DHT22;3407;49.882;10.920;2023-08-06T11:29:57;28.90;99.90
6740;DHT22;3407;49.882;10.920;2023-08-06T11:34:53;27.50;99.90
6740;DHT22;3407;49.882;10.920;2023-08-06T11:39:50;24.20;99.90
6740;DHT22;3407;49.882;10.920;2023-08-06T11:44:46;20.90;1.00
6740;DHT22;3407;49.882;10.920;2023-08-06T11:49:48;19.70;1.00
6740;DHT22;3407;49.882;10.920;2023-08-06T11:54:43;20.30;1.00
6740;DHT22;3407;49.882;10.920;2023-08-06T11:59:39;23.10;1.00
6740;DHT22;3407;49.882;10.920;2023-08-06T12:05:01;24.10;99.90
6740;DHT22;3407;49.882;10.920;2023-08-06T12:09:58;22.50;1.00
6740;DHT22;3407;49.882;10.920;2023-08-06T12:14:54;25.00;99.90
6740;DHT22;3407;49.882;10.920;2023-08-06T12:19:50;27.70;99.90
6740;DHT22;3407;49.882;10.920;2023-08-06T12:24:46;27.50;99.90
6740;DHT22;3407;49.882;10.920;2023-08-06T12:29:47;27.50;99.90
6740;DHT22;3407;49.882;10.920;2023-08-06T12:34:43;27.20;99.90
6740;DHT22;3407;49.882;10.920;2023-08-06T12:39:38;27.50;99.90
6740;DHT22;3407;49.882;10.920;2023-08-06T12:44:34;28.90;99.90
6740;DHT22;3407;49.882;10.920;2023-08-06T12:49:30;30.70;99.90
6740;DHT22;3407;49.882;10.920;2023-08-06T12:54:27;30.30;99.90
6740;DHT22;3407;49.882;10.920;2023-08-06T12:59:23;27.60;99.90
6740;DHT22;3407;49.882;10.920;2023-08-06T13:04:18;28.80;99.90
6740;DHT22;3407;49.882;10.920;2023-08-06T13:09:14;28.60;99.90
6740;DHT22;3407;49.882;10.920;2023-08-06T13:14:11;27.60;99.90
6740;DHT22;3407;49.882;10.920;2023-08-06T13:19:07;27.10;99.90
6740;DHT22;3407;49.882;10.920;2023-08-06T13:24:03;25.90;99.90
6740;DHT22;3407;49.882;10.920;2023-08-06T13:28:59;24.40;99.90
6740;DHT22;3407;49.882;10.920;2023-08-06T13:33:55;24.50;99.90
6740;DHT22;3407;49.882;10.920;2023-08-06T13:38:51;26.30;99.90
6740;DHT22;3407;49.882;10.920;2023-08-06T13:43:47;27.20;99.90
6740;DHT22;3407;49.882;10.920;2023-08-06T13:48:43;26.70;99.90
6740;DHT22;3407;49.882;10.920;2023-08-06T13:53:40;24.50;99.90
6740;DHT22;3407;49.882;10.920;2023-08-06T13:58:36;23.60;99.90
6740;DHT22;3407;49.882;10.920;2023-08-06T14:03:33;24.60;99.90
6740;DHT22;3407;49.882;10.920;2023-08-06T14:08:28;25.40;99.90
6740;DHT22;3407;49.882;10.920;2023-08-06T14:13:24;25.80;99.90
6740;DHT22;3407;49.882;10.920;2023-08-06T14:18:19;25.80;99.90
6740;DHT22;3407;49.882;10.920;2023-08-06T14:23:15;25.40;99.90
6740;DHT22;3407;49.882;10.920;2023-08-06T14:28:11;24.20;99.90
6740;DHT22;3407;49.882;10.920;2023-08-06T14:33:06;23.30;99.90
6740;DHT22;3407;49.882;10.920;2023-08-06T14:38:02;22.60;99.90
6740;DHT22;3407;49.882;10.920;2023-08-06T14:42:57;20.80;1.00
6740;DHT22;3407;49.882;10.920;2023-08-06T14:47:53;19.40;99.90
6740;DHT22;3407;49.882;10.920;2023-08-06T14:52:48;19.00;1.00
6740;DHT22;3407;49.882;10.920;2023-08-06T14:57:44;18.60;1.00
6740;DHT22;3407;49.882;10.920;2023-08-06T15:02:40;18.20;99.90
6740;DHT22;3407;49.882;10.920;2023-08-06T15:07:35;18.20;99.90
6740;DHT22;3407;49.882;10.920;2023-08-06T15:12:31;18.10;99.90
6740;DHT22;3407;49.882;10.920;2023-08-06T15:17:27;17.90;71.20
6740;DHT22;3407;49.882;10.920;2023-08-06T15:22:25;17.80;99.90
6740;DHT22;3407;49.882;10.920;2023-08-06T15:27:21;17.80;1.00
6740;DHT22;3407;49.882;10.920;2023-08-06T15:32:16;17.70;99.90
6740;DHT22;3407;49.882;10.920;2023-08-06T15:37:12;17.40;99.90
6740;DHT22;3407;49.882;10.920;2023-08-06T15:42:07;17.30;1.00
6740;DHT22;3407;49.882;10.920;2023-08-06T15:47:03;17.30;99.90
6740;DHT22;3407;49.882;10.920;2023-08-06T15:51:59;17.40;99.90
6740;DHT22;3407;49.882;10.920;2023-08-06T15:56:54;17.40;1.80
6740;DHT22;3407;49.882;10.920;2023-08-06T16:01:50;17.30;1.00
6740;DHT22;3407;49.882;10.920;2023-08-06T16:06:46;17.30;99.90
6740;DHT22;3407;49.882;10.920;2023-08-06T16:11:41;17.20;99.90
6740;DHT22;3407;49.882;10.920;2023-08-06T16:16:37;17.10;99.90
6740;DHT22;3407;49.882;10.920;2023-08-06T16:21:33;16.90;99.90
6740;DHT22;3407;49.882;10.920;2023-08-06T16:26:28;16.80;1.00
6740;DHT22;3407;49.882;10.920;2023-08-06T16:31:24;16.70;1.00
6740;DHT22;3407;49.882;10.920;2023-08-06T16:36:19;16.90;99.90
6740;DHT22;3407;49.882;10.920;2023-08-06T16:41:15;17.20;99.90
6740;DHT22;3407;49.882;10.920;2023-08-06T16:46:10;17.40;99.90
6740;DHT22;3407;49.882;10.920;2023-08-06T16:51:06;17.30;1.00
6740;DHT22;3407;49.882;10.920;2023-08-06T16:56:01;16.90;99.90
6740;DHT22;3407;49.882;10.920;2023-08-06T17:00:57;16.60;99.90
6740;DHT22;3407;49.882;10.920;2023-08-06T17:05:59;16.20;1.00
6740;DHT22;3407;49.882;10.920;2023-08-06T17:10:56;15.80;1.00
6740;DHT22;3407;49.882;10.920;2023-08-06T17:15:52;15.40;1.00
6740;DHT22;3407;49.882;10.920;2023-08-06T17:20:48;15.20;1.00
6740;DHT22;3407;49.882;10.920;2023-08-06T17:25:44;15.20;1.00
6740;DHT22;3407;49.882;10.920;2023-08-06T17:30:40;15.00;1.00
6740;DHT22;3407;49.882;10.920;2023-08-06T17:35:39;14.80;1.00
6740;DHT22;3407;49.882;10.920;2023-08-06T17:40:35;14.80;1.50
6740;DHT22;3407;49.882;10.920;2023-08-06T17:45:31;14.70;8.20
6740;DHT22;3407;49.882;10.920;2023-08-06T17:50:26;14.70;5.90
6740;DHT22;3407;49.882;10.920;2023-08-06T17:55:22;14.60;1.00
6740;DHT22;3407;49.882;10.920;2023-08-06T18:00:17;14.60;1.90
6740;DHT22;3407;49.882;10.920;2023-08-06T18:05:13;14.60;3.80
6740;DHT22;3407;49.882;10.920;2023-08-06T18:10:10;14.50;1.00
6740;DHT22;3407;49.882;10.920;2023-08-06T18:15:06;14.50;1.00
6740;DHT22;3407;49.882;10.920;2023-08-06T18:20:02;14.50;2.10
6740;DHT22;3407;49.882;10.920;2023-08-06T18:24:59;14.40;1.00
6740;DHT22;3407;49.882;10.920;2023-08-06T18:29:57;14.40;1.00
6740;DHT22;3407;49.882;10.920;2023-08-06T18:34:53;14.30;1.00
6740;DHT22;3407;49.882;10.920;2023-08-06T18:39:49;14.20;1.00
6740;DHT22;3407;49.882;10.920;2023-08-06T18:44:45;14.20;5.10
6740;DHT22;3407;49.882;10.920;2023-08-06T18:49:40;14.10;11.60
6740;DHT22;3407;49.882;10.920;2023-08-06T18:54:36;14.10;13.10
6740;DHT22;3407;49.882;10.920;2023-08-06T18:59:31;14.10;18.40
6740;DHT22;3407;49.882;10.920;2023-08-06T19:04:27;14.00;15.90
6740;DHT22;3407;49.882;10.920;2023-08-06T19:09:23;14.00;18.80
6740;DHT22;3407;49.882;10.920;2023-08-06T19:14:19;14.00;19.50
6740;DHT22;3407;49.882;10.920;2023-08-06T19:19:15;13.90;19.00
6740;DHT22;3407;49.882;10.920;2023-08-06T19:24:10;13.90;26.10
6740;DHT22;3407;49.882;10.920;2023-08-06T19:29:06;13.90;29.30
6740;DHT22;3407;49.882;10.920;2023-08-06T19:34:01;13.90;33.50
6740;DHT22;3407;49.882;10.920;2023-08-06T19:38:57;13.90;31.10
6740;DHT22;3407;49.882;10.920;2023-08-06T19:43:52;13.90;39.90
6740;DHT22;3407;49.882;10.920;2023-08-06T19:48:48;13.80;43.90
6740;DHT22;3407;49.882;10.920;2023-08-06T19:53:43;13.70;46.90
6740;DHT22;3407;49.882;10.920;2023-08-06T19:58:39;13.80;53.30
6740;DHT22;3407;49.882;10.920;2023-08-06T20:03:35;13.80;54.20
6740;DHT22;3407;49.882;10.920;2023-08-06T20:08:32;13.70;56.90
6740;DHT22;3407;49.882;10.920;2023-08-06T20:13:28;13.70;60.40
6740;DHT22;3407;49.882;10.920;2023-08-06T20:18:24;13.70;59.20
6740;DHT22;3407;49.882;10.920;2023-08-06T20:23:21;13.70;62.40
6740;DHT22;3407;49.882;10.920;2023-08-06T20:28:17;13.70;63.70
6740;DHT22;3407;49.882;10.920;2023-08-06T20:33:12;13.70;64.10
6740;DHT22;3407;49.882;10.920;2023-08-06T20:38:08;13.70;65.50
6740;DHT22;3407;49.882;10.920;2023-08-06T20:43:03;13.60;66.60
6740;DHT22;3407;49.882;10.920;2023-08-06T20:48:00;13.60;66.30
6740;DHT22;3407;49.882;10.920;2023-08-06T20:52:55;13.60;67.70
6740;DHT22;3407;49.882;10.920;2023-08-06T20:57:51;13.60;69.90
6740;DHT22;3407;49.882;10.920;2023-08-06T21:02:47;13.50;67.30
6740;DHT22;3407;49.882;10.920;2023-08-06T21:07:42;13.50;65.80
6740;DHT22;3407;49.882;10.920;2023-08-06T21:12:38;13.50;66.40
6740;DHT22;3407;49.882;10.920;2023-08-06T21:17:33;13.40;66.90
6740;DHT22;3407;49.882;10.920;2023-08-06T21:22:29;13.40;66.40
6740;DHT22;3407;49.882;10.920;2023-08-06T21:27:24;13.30;67.40
6740;DHT22;3407;49.882;10.920;2023-08-06T21:32:20;13.30;68.40
6740;DHT22;3407;49.882;10.920;2023-08-06T21:37:15;13.30;70.50
6740;DHT22;3407;49.882;10.920;2023-08-06T21:42:11;13.30;68.60
6740;DHT22;3407;49.882;10.920;2023-08-06T21:47:06;13.30;69.40
6740;DHT22;3407;49.882;10.920;2023-08-06T21:52:02;13.30;69.20
6740;DHT22;3407;49.882;10.920;2023-08-06T21:56:58;13.20;67.60
6740;DHT22;3407;49.882;10.920;2023-08-06T22:01:53;13.30;69.60
6740;DHT22;3407;49.882;10.920;2023-08-06T22:06:48;13.20;68.80
6740;DHT22;3407;49.882;10.920;2023-08-06T22:11:44;13.20;66.70
6740;DHT22;3407;49.882;10.920;2023-08-06T22:16:39;13.10;66.90
6740;DHT22;3407;49.882;10.920;2023-08-06T22:21:35;13.10;63.80
6740;DHT22;3407;49.882;10.920;2023-08-06T22:26:30;13.10;66.90
6740;DHT22;3407;49.882;10.920;2023-08-06T22:31:26;13.00;67.60
6740;DHT22;3407;49.882;10.920;2023-08-06T22:36:22;13.10;67.90
6740;DHT22;3407;49.882;10.920;2023-08-06T22:41:17;13.00;66.80
6740;DHT22;3407;49.882;10.920;2023-08-06T22:46:13;13.00;68.80
6740;DHT22;3407;49.882;10.920;2023-08-06T22:51:09;13.00;71.40
6740;DHT22;3407;49.882;10.920;2023-08-06T22:56:04;13.00;71.80
6740;DHT22;3407;49.882;10.920;2023-08-06T23:01:00;13.00;73.30
6740;DHT22;3407;49.882;10.920;2023-08-06T23:05:57;13.00;74.30
6740;DHT22;3407;49.882;10.920;2023-08-06T23:10:52;12.90;72.60
6740;DHT22;3407;49.882;10.920;2023-08-06T23:15:48;12.80;72.10
6740;DHT22;3407;49.882;10.920;2023-08-06T23:20:43;12.80;73.60
6740;DHT22;3407;49.882;10.920;2023-08-06T23:25:39;12.80;75.00
6740;DHT22;3407;49.882;10.920;2023-08-06T23:30:35;12.80;76.20
6740;DHT22;3407;49.882;10.920;2023-08-06T23:35:30;12.80;76.70
6740;DHT22;3407;49.882;10.920;2023-08-06T23:40:26;12.90;77.20
6740;DHT22;3407;49.882;10.920;2023-08-06T23:45:21;12.90;77.30
6740;DHT22;3407;49.882;10.920;2023-08-06T23:50:17;12.80;77.10
6740;DHT22;3407;49.882;10.920;2023-08-06T23:55:12;12.80;76.80
